createdAt,value
2022-08-01T00:02:44.150Z,999.58
2022-08-01T00:07:44.040Z,999.56
2022-08-01T00:12:43.993Z,999.51
2022-08-01T00:17:44.022Z,999.55
2022-08-01T00:22:43.890Z,999.51
2022-08-01T00:27:43.789Z,999.52
2022-08-01T00:32:43.767Z,999.56
2022-08-01T00:37:43.712Z,999.62
2022-08-01T00:42:44.023Z,999.57
2022-08-01T00:47:43.614Z,999.59
2022-08-01T00:52:43.531Z,999.54
2022-08-01T00:58:03.504Z,999.48
2022-08-01T01:02:44.383Z,999.51
2022-08-01T01:07:50.091Z,999.47
2022-08-01T01:12:49.566Z,999.50
2022-08-01T01:17:50.630Z,999.49
2022-08-01T01:22:44.188Z,999.52
2022-08-01T01:27:43.144Z,999.56
2022-08-01T01:32:43.089Z,999.56
2022-08-01T01:37:44.057Z,999.53
2022-08-01T01:42:42.958Z,999.50
2022-08-01T01:47:42.890Z,999.52
2022-08-01T01:52:42.892Z,999.66
2022-08-01T01:57:42.793Z,999.66
2022-08-01T02:02:42.919Z,999.69
2022-08-01T02:07:42.673Z,999.67
2022-08-01T02:12:42.706Z,999.61
2022-08-01T02:17:42.645Z,999.63
2022-08-01T02:22:42.480Z,999.56
2022-08-01T02:27:42.442Z,999.57
2022-08-01T02:32:42.457Z,999.48
2022-08-01T02:37:44.417Z,999.56
2022-08-01T02:42:42.288Z,999.54
2022-08-01T02:47:42.224Z,999.48
2022-08-01T02:52:42.173Z,999.42
2022-08-01T02:57:51.760Z,999.37
2022-08-01T03:02:43.057Z,999.40
2022-08-01T03:07:41.974Z,999.44
2022-08-01T03:12:41.982Z,999.43
2022-08-01T03:17:41.999Z,999.47
2022-08-01T03:22:41.806Z,999.47
2022-08-01T03:27:41.912Z,999.57
2022-08-01T03:32:41.731Z,999.62
2022-08-01T03:37:59.923Z,999.62
2022-08-01T03:42:42.602Z,999.65
2022-08-01T03:47:44.718Z,999.65
2022-08-01T03:52:41.466Z,999.64
2022-08-01T03:57:41.484Z,999.63
2022-08-01T04:02:41.380Z,999.66
2022-08-01T04:07:41.329Z,999.63
2022-08-01T04:12:41.371Z,999.67
2022-08-01T04:17:41.308Z,999.67
2022-08-01T04:22:41.168Z,999.67
2022-08-01T04:27:50.193Z,999.64
2022-08-01T04:32:42.074Z,999.75
2022-08-01T04:37:40.929Z,999.82
2022-08-01T04:42:41.004Z,999.90
2022-08-01T04:47:41.073Z,999.98
2022-08-01T04:52:40.873Z,999.91
2022-08-01T04:57:40.796Z,1000.00
2022-08-01T05:02:40.735Z,999.97
2022-08-01T05:07:45.218Z,999.99
2022-08-01T05:12:40.620Z,999.96
2022-08-01T05:17:40.537Z,1000.04
2022-08-01T05:22:40.562Z,1000.03
2022-08-01T05:27:40.490Z,1000.03
2022-08-01T05:32:40.396Z,1000.08
2022-08-01T05:37:40.517Z,1000.08
2022-08-01T05:42:40.279Z,1000.21
2022-08-01T05:47:42.937Z,1000.27
2022-08-01T05:52:40.188Z,1000.26
2022-08-01T05:57:40.714Z,1000.25
2022-08-01T06:02:40.130Z,1000.28
2022-08-01T06:07:40.053Z,1000.34
2022-08-01T06:12:39.933Z,1000.32
2022-08-01T06:17:39.879Z,1000.30
2022-08-01T06:22:39.827Z,1000.30
2022-08-01T06:27:39.773Z,1000.42
2022-08-01T06:32:39.704Z,1000.35
2022-08-01T06:37:39.671Z,1000.41
2022-08-01T06:42:39.609Z,1000.39
2022-08-01T06:47:39.531Z,1000.49
2022-08-01T06:52:39.481Z,1000.42
2022-08-01T06:57:39.441Z,1000.38
2022-08-01T07:02:39.391Z,1000.37
2022-08-01T07:07:39.342Z,1000.36
2022-08-01T07:12:39.291Z,1000.32
2022-08-01T07:17:39.211Z,1000.17
2022-08-01T07:22:39.151Z,1000.20
2022-08-01T07:27:39.222Z,1000.12
2022-08-01T07:32:39.178Z,1000.18
2022-08-01T07:37:48.257Z,1000.29
2022-08-01T07:42:40.025Z,1000.31
2022-08-01T07:47:38.928Z,1000.28
2022-08-01T07:52:38.926Z,1000.37
2022-08-01T07:57:38.851Z,1000.29
2022-08-01T08:02:38.755Z,1000.40
2022-08-01T08:07:38.802Z,1000.36
2022-08-01T08:12:38.620Z,1000.32
2022-08-01T08:17:38.599Z,1000.34
2022-08-01T08:22:38.541Z,1000.36
2022-08-01T08:27:38.471Z,1000.31
2022-08-01T08:32:38.412Z,1000.32
2022-08-01T08:37:44.056Z,1000.34
2022-08-01T08:42:39.297Z,1000.47
2022-08-01T08:47:38.221Z,1000.51
2022-08-01T08:52:38.195Z,1000.44
2022-08-01T08:57:38.129Z,1000.53
2022-08-01T09:02:38.098Z,1000.50
2022-08-01T09:07:38.015Z,1000.49
2022-08-01T09:12:37.978Z,1000.55
2022-08-01T09:17:37.928Z,1000.70
2022-08-01T09:22:37.850Z,1000.73
2022-08-01T09:27:37.809Z,1000.73
2022-08-01T09:32:38.756Z,1000.63
2022-08-01T09:37:37.755Z,1000.79
2022-08-01T09:42:37.657Z,1000.85
2022-08-01T09:47:38.778Z,1000.88
2022-08-01T09:52:37.554Z,1000.93
2022-08-01T09:57:37.474Z,1000.91
2022-08-01T10:02:37.430Z,1000.81
2022-08-01T10:07:43.782Z,1000.71
2022-08-01T10:12:38.332Z,1000.68
2022-08-01T10:17:50.472Z,1000.59
2022-08-01T10:22:38.240Z,1000.75
2022-08-01T10:27:39.512Z,1000.70
2022-08-01T10:32:37.606Z,1000.73
2022-08-01T10:37:52.038Z,1000.77
2022-08-01T10:42:38.004Z,1000.63
2022-08-01T10:47:49.914Z,1000.62
2022-08-01T10:52:39.732Z,1000.64
2022-08-01T10:57:36.851Z,1000.59
2022-08-01T11:02:36.804Z,1000.59
2022-08-01T11:07:36.781Z,1000.57
2022-08-01T11:12:36.698Z,1000.62
2022-08-01T11:17:37.723Z,1000.54
2022-08-01T11:22:37.593Z,1000.53
2022-08-01T11:27:36.523Z,1000.63
2022-08-01T11:32:58.768Z,1000.66
2022-08-01T11:37:37.437Z,1000.67
2022-08-01T11:42:36.379Z,1000.65
2022-08-01T11:47:36.865Z,1000.59
2022-08-01T11:52:36.262Z,1000.58
2022-08-01T11:57:36.297Z,1000.47
2022-08-01T12:02:36.255Z,1000.55
2022-08-01T12:07:36.117Z,1000.64
2022-08-01T12:12:36.066Z,1000.66
2022-08-01T12:17:36.016Z,1000.68
2022-08-01T12:22:44.799Z,1000.64
2022-08-01T12:27:35.902Z,1000.76
2022-08-01T12:32:36.088Z,1000.78
2022-08-01T12:37:35.801Z,1000.69
2022-08-01T12:42:35.733Z,1000.63
2022-08-01T12:47:35.687Z,1000.67
2022-08-01T12:52:35.640Z,1000.67
2022-08-01T12:57:37.658Z,1000.53
2022-08-01T13:02:35.540Z,1000.63
2022-08-01T13:07:43.516Z,1000.58
2022-08-01T13:12:36.432Z,1000.67
2022-08-01T13:17:35.371Z,1000.64
2022-08-01T13:22:35.345Z,1000.54
2022-08-01T13:27:35.276Z,1000.63
2022-08-01T13:32:35.228Z,1000.67
2022-08-01T13:37:35.201Z,1000.65
2022-08-01T13:42:35.121Z,1000.69
2022-08-01T13:47:35.082Z,1000.74
2022-08-01T13:52:35.033Z,1000.84
2022-08-01T13:57:36.860Z,1000.78
2022-08-01T14:02:34.923Z,1000.85
2022-08-01T14:07:34.842Z,1000.82
2022-08-01T14:12:34.792Z,1000.74
2022-08-01T14:17:37.679Z,1000.82
2022-08-01T14:22:34.700Z,1000.75
2022-08-01T14:27:34.634Z,1000.79
2022-08-01T14:32:34.575Z,1000.73
2022-08-01T14:37:38.012Z,1000.75
2022-08-01T14:42:34.481Z,1000.87
2022-08-01T14:47:34.449Z,1000.86
2022-08-01T14:52:34.364Z,1000.81
2022-08-01T14:57:34.343Z,1000.73
2022-08-01T15:02:34.336Z,1000.79
2022-08-01T15:07:35.523Z,1000.89
2022-08-01T15:12:49.510Z,1000.85
2022-08-01T15:17:37.131Z,1000.83
2022-08-01T15:22:34.046Z,1000.87
2022-08-01T15:27:34.043Z,1000.92
2022-08-01T15:32:33.938Z,1000.94
2022-08-01T15:37:33.904Z,1001.02
2022-08-01T15:42:33.843Z,1001.00
2022-08-01T15:47:33.791Z,1000.98
2022-08-01T15:52:33.712Z,1000.95
2022-08-01T15:57:33.692Z,1000.95
2022-08-01T16:02:33.707Z,1000.95
2022-08-01T16:07:33.649Z,1000.96
2022-08-01T16:12:33.529Z,1000.96
2022-08-01T16:17:38.353Z,1001.00
2022-08-01T16:22:34.422Z,1001.09
2022-08-01T16:27:33.348Z,1001.09
2022-08-01T16:32:42.735Z,1001.09
2022-08-01T16:37:34.263Z,1001.01
2022-08-01T16:42:33.347Z,1001.01
2022-08-01T16:47:33.271Z,1000.99
2022-08-01T16:52:33.082Z,1001.03
2022-08-01T16:57:34.088Z,1001.01
2022-08-01T17:02:32.985Z,1001.02
2022-08-01T17:07:32.916Z,1001.07
2022-08-01T17:12:32.864Z,1001.14
2022-08-01T17:17:32.821Z,1001.17
2022-08-01T17:22:32.770Z,1001.12
2022-08-01T17:27:32.886Z,1001.08
2022-08-01T17:32:32.648Z,1001.14
2022-08-01T17:37:32.600Z,1001.07
2022-08-01T17:42:32.540Z,1001.17
2022-08-01T17:47:49.769Z,1001.17
2022-08-01T17:52:33.526Z,1001.17
2022-08-01T17:57:32.425Z,1001.19
2022-08-01T18:02:32.349Z,1001.17
2022-08-01T18:08:01.056Z,1001.23
2022-08-01T18:12:33.238Z,1001.21
2022-08-01T18:17:32.167Z,1001.20
2022-08-01T18:22:40.961Z,1001.20
2022-08-01T18:28:22.785Z,1001.28
2022-08-01T18:32:33.033Z,1001.28
2022-08-01T18:37:32.106Z,1001.32
2022-08-01T18:42:32.911Z,1001.44
2022-08-01T18:47:31.919Z,1001.45
2022-08-01T18:52:32.013Z,1001.48
2022-08-01T18:57:31.793Z,1001.58
2022-08-01T19:02:31.708Z,1001.66
2022-08-01T19:08:03.029Z,1001.76
2022-08-01T19:12:32.620Z,1001.81
2022-08-01T19:17:31.534Z,1001.84
2022-08-01T19:22:31.496Z,1001.85
2022-08-01T19:27:31.470Z,1001.87
2022-08-01T19:32:31.549Z,1001.88
2022-08-01T19:37:31.344Z,1002.03
2022-08-01T19:42:31.374Z,1002.21
2022-08-01T19:47:52.080Z,1002.17
2022-08-01T19:52:32.216Z,1002.18
2022-08-01T19:57:45.728Z,1002.23
2022-08-01T20:02:32.141Z,1002.23
2022-08-01T20:07:30.997Z,1002.20
2022-08-01T20:12:30.999Z,1002.31
2022-08-01T20:17:30.897Z,1002.30
2022-08-01T20:22:30.866Z,1002.43
2022-08-01T20:27:30.767Z,1002.51
2022-08-01T20:32:31.779Z,1002.52
2022-08-01T20:38:03.511Z,1002.62
2022-08-01T20:42:31.629Z,1002.64
2022-08-01T20:47:32.758Z,1002.59
2022-08-01T20:52:30.553Z,1002.60
2022-08-01T20:57:30.451Z,1002.50
2022-08-01T21:02:30.370Z,1002.55
2022-08-01T21:07:30.517Z,1002.56
2022-08-01T21:12:30.360Z,1002.52
2022-08-01T21:17:33.869Z,1002.59
2022-08-01T21:22:30.148Z,1002.56
2022-08-01T21:27:33.381Z,1002.52
2022-08-01T21:32:30.034Z,1002.50
2022-08-01T21:37:30.017Z,1002.48
2022-08-01T21:42:39.819Z,1002.48
2022-08-01T21:47:29.862Z,1002.52
2022-08-01T21:52:29.806Z,1002.55
2022-08-01T21:57:29.756Z,1002.49
2022-08-01T22:02:29.758Z,1002.54
2022-08-01T22:07:29.629Z,1002.54
2022-08-01T22:12:29.721Z,1002.60
2022-08-01T22:17:29.572Z,1002.65
2022-08-01T22:22:51.408Z,1002.64
2022-08-01T22:28:03.221Z,1002.70
2022-08-01T22:32:30.350Z,1002.71
2022-08-01T22:37:57.292Z,1002.74
2022-08-01T22:42:30.238Z,1002.73
2022-08-01T22:47:29.319Z,1002.80
2022-08-01T22:52:29.246Z,1002.73
2022-08-01T22:57:29.080Z,1002.71
2022-08-01T23:02:29.018Z,1002.63
2022-08-01T23:07:28.945Z,1002.68
2022-08-01T23:12:28.915Z,1002.65
2022-08-01T23:17:29.744Z,1002.68
2022-08-01T23:22:28.784Z,1002.64
2022-08-01T23:28:03.485Z,1002.65
2022-08-01T23:32:29.689Z,1002.66
2022-08-01T23:37:28.703Z,1002.63
2022-08-01T23:42:29.047Z,1002.59
2022-08-01T23:47:28.504Z,1002.63
2022-08-01T23:52:29.992Z,1002.60
2022-08-01T23:57:28.407Z,1002.63
